createdAt,value
2017-11-01T00:00:10.181Z,11.40
2017-11-01T00:02:37.873Z,11.37
2017-11-01T00:05:05.586Z,11.36
2017-11-01T00:07:33.272Z,11.37
2017-11-01T00:10:01.062Z,11.36
2017-11-01T00:12:28.769Z,11.39
2017-11-01T00:14:56.418Z,11.34
2017-11-01T00:17:24.104Z,11.33
2017-11-01T00:19:51.743Z,11.32
2017-11-01T00:22:19.414Z,11.30
2017-11-01T00:24:47.061Z,11.29
2017-11-01T00:27:14.754Z,11.29
2017-11-01T00:29:42.418Z,11.27
2017-11-01T00:32:10.137Z,11.25
2017-11-01T00:34:37.794Z,11.26
2017-11-01T00:37:05.469Z,11.26
2017-11-01T00:39:33.106Z,11.26
2017-11-01T00:42:00.793Z,11.18
2017-11-01T00:44:30.172Z,11.13
2017-11-01T00:46:57.864Z,11.11
2017-11-01T00:49:25.568Z,11.05
2017-11-01T00:51:53.390Z,11.06
2017-11-01T00:54:21.036Z,11.04
2017-11-01T00:56:48.717Z,11.01
2017-11-01T00:59:16.342Z,11.01
2017-11-01T01:01:44.026Z,11.03
2017-11-01T01:04:11.679Z,11.02
2017-11-01T01:06:39.361Z,11.04
2017-11-01T01:09:07.011Z,11.04
2017-11-01T01:11:34.708Z,11.03
2017-11-01T01:14:02.397Z,11.05
2017-11-01T01:16:30.075Z,11.07
2017-11-01T01:18:57.774Z,11.07
2017-11-01T01:21:25.426Z,11.06
2017-11-01T01:23:53.137Z,11.07
2017-11-01T01:26:20.788Z,11.08
2017-11-01T01:28:48.491Z,11.06
2017-11-01T01:31:16.214Z,11.09
2017-11-01T01:33:43.921Z,11.12
2017-11-01T01:36:11.562Z,11.11
2017-11-01T01:38:39.257Z,11.10
2017-11-01T01:41:06.913Z,11.06
2017-11-01T01:43:34.587Z,11.05
2017-11-01T01:46:02.286Z,11.09
2017-11-01T01:48:29.986Z,11.10
2017-11-01T01:50:57.637Z,11.12
2017-11-01T01:53:25.320Z,11.13
2017-11-01T01:55:52.966Z,11.14
2017-11-01T01:58:20.625Z,11.13
2017-11-01T02:00:48.304Z,11.13
2017-11-01T02:03:15.965Z,11.19
2017-11-01T02:05:43.649Z,11.18
2017-11-01T02:08:11.316Z,11.18
2017-11-01T02:10:38.997Z,11.14
2017-11-01T02:13:06.644Z,11.13
2017-11-01T02:15:34.315Z,11.15
2017-11-01T02:18:01.980Z,11.13
2017-11-01T02:20:29.673Z,11.16
2017-11-01T02:22:57.321Z,11.17
2017-11-01T02:25:25.010Z,11.15
2017-11-01T02:27:52.680Z,11.13
2017-11-01T02:30:20.351Z,11.15
2017-11-01T02:32:47.980Z,11.18
2017-11-01T02:35:15.659Z,11.17
2017-11-01T02:37:43.336Z,11.16
2017-11-01T02:40:10.987Z,11.19
2017-11-01T02:42:38.659Z,11.16
2017-11-01T02:45:06.333Z,11.21
2017-11-01T02:47:34.011Z,11.20
2017-11-01T02:50:01.657Z,11.22
2017-11-01T02:52:29.381Z,11.22
2017-11-01T02:54:57.017Z,11.23
2017-11-01T02:57:24.674Z,11.22
2017-11-01T02:59:52.330Z,11.23
2017-11-01T03:02:28.757Z,11.26
2017-11-01T03:04:56.478Z,11.29
2017-11-01T03:07:24.116Z,11.27
2017-11-01T03:09:51.836Z,11.31
2017-11-01T03:12:19.466Z,11.33
2017-11-01T03:14:47.153Z,11.35
2017-11-01T03:17:14.789Z,11.37
2017-11-01T03:19:42.501Z,11.37
2017-11-01T03:22:10.166Z,11.37
2017-11-01T03:24:37.790Z,11.39
2017-11-01T03:27:05.450Z,11.38
2017-11-01T03:29:33.084Z,11.42
2017-11-01T03:32:00.813Z,11.40
2017-11-01T03:34:28.449Z,11.40
2017-11-01T03:36:56.114Z,11.39
2017-11-01T03:39:23.793Z,11.40
2017-11-01T03:41:51.469Z,11.41
2017-11-01T03:44:19.138Z,11.42
2017-11-01T03:46:46.798Z,11.43
2017-11-01T03:49:14.431Z,11.45
2017-11-01T03:51:42.122Z,11.42
2017-11-01T03:54:09.800Z,11.42
2017-11-01T03:56:37.548Z,11.42
2017-11-01T03:59:05.190Z,11.46
2017-11-01T04:01:32.833Z,11.43
2017-11-01T04:04:00.521Z,11.48
2017-11-01T04:06:28.169Z,11.46
2017-11-01T04:08:55.834Z,11.46
2017-11-01T04:11:23.493Z,11.45
2017-11-01T04:13:51.153Z,11.47
2017-11-01T04:16:18.839Z,11.45
2017-11-01T04:21:48.674Z,11.45
2017-11-01T04:24:16.374Z,11.45
2017-11-01T04:26:44.014Z,11.44
2017-11-01T04:29:11.689Z,11.44
2017-11-01T04:31:39.462Z,11.47
2017-11-01T04:34:07.142Z,11.45
2017-11-01T04:36:40.568Z,11.47
2017-11-01T04:39:08.334Z,11.48
2017-11-01T04:41:35.991Z,11.47
2017-11-01T04:44:03.676Z,11.48
2017-11-01T04:46:31.324Z,11.47
2017-11-01T04:48:59.018Z,11.47
2017-11-01T04:51:26.729Z,11.48
2017-11-01T04:53:54.412Z,11.49
2017-11-01T04:56:24.754Z,11.47
2017-11-01T04:58:53.364Z,11.49
2017-11-01T05:01:21.049Z,11.49
2017-11-01T05:03:48.726Z,11.49
2017-11-01T05:06:20.037Z,11.46
2017-11-01T05:08:49.327Z,11.50
2017-11-01T05:11:18.889Z,11.48
2017-11-01T05:13:52.749Z,11.47
2017-11-01T05:16:21.229Z,11.48
2017-11-01T05:18:48.934Z,11.51
2017-11-01T05:21:16.581Z,11.54
2017-11-01T05:23:46.781Z,11.55
2017-11-01T05:26:14.469Z,11.55
2017-11-01T05:28:42.136Z,11.55
2017-11-01T05:31:09.829Z,11.56
2017-11-01T05:33:37.506Z,11.57
2017-11-01T05:36:05.166Z,11.56
2017-11-01T05:38:32.901Z,11.56
2017-11-01T05:41:00.550Z,11.55
2017-11-01T05:43:28.225Z,11.57
2017-11-01T05:45:55.896Z,11.58
2017-11-01T05:48:23.577Z,11.57
2017-11-01T05:50:51.236Z,11.59
2017-11-01T05:53:18.917Z,11.58
2017-11-01T05:55:47.524Z,11.60
2017-11-01T05:58:15.208Z,11.58
2017-11-01T06:00:42.893Z,11.57
2017-11-01T06:03:10.569Z,11.55
2017-11-01T06:05:38.222Z,11.57
2017-11-01T06:08:05.893Z,11.57
2017-11-01T06:10:33.582Z,11.58
2017-11-01T06:13:01.277Z,11.61
2017-11-01T06:15:29.022Z,11.61
2017-11-01T06:17:56.713Z,11.60
2017-11-01T06:20:24.424Z,11.58
2017-11-01T06:22:52.148Z,11.61
2017-11-01T06:25:19.844Z,11.60
2017-11-01T06:27:47.603Z,11.60
2017-11-01T06:30:15.258Z,11.61
2017-11-01T06:32:43.020Z,11.63
2017-11-01T06:35:10.670Z,11.63
2017-11-01T06:37:38.378Z,11.63
2017-11-01T06:40:06.021Z,11.61
2017-11-01T06:42:33.684Z,11.59
2017-11-01T06:45:01.345Z,11.61
2017-11-01T06:47:29.060Z,11.66
2017-11-01T06:49:56.705Z,11.64
2017-11-01T06:52:24.441Z,11.65
2017-11-01T06:54:52.182Z,11.64
2017-11-01T06:57:19.878Z,11.64
2017-11-01T06:59:47.521Z,11.64
2017-11-01T07:02:15.228Z,11.62
2017-11-01T07:04:42.997Z,11.65
2017-11-01T07:07:10.682Z,11.67
2017-11-01T07:09:40.212Z,11.69
2017-11-01T07:12:07.906Z,11.72
2017-11-01T07:14:35.639Z,11.74
2017-11-01T07:17:03.285Z,11.75
2017-11-01T07:19:30.965Z,11.73
2017-11-01T07:21:58.640Z,11.73
2017-11-01T07:24:26.325Z,11.74
2017-11-01T07:26:53.982Z,11.77
2017-11-01T07:29:21.639Z,11.73
2017-11-01T07:31:49.344Z,11.76
2017-11-01T07:34:17.033Z,11.75
2017-11-01T07:36:44.710Z,11.74
2017-11-01T07:39:12.405Z,11.75
2017-11-01T07:41:40.054Z,11.74
2017-11-01T07:44:07.766Z,11.75
2017-11-01T07:46:35.426Z,11.76
2017-11-01T07:49:03.108Z,11.74
2017-11-01T07:51:30.881Z,11.69
2017-11-01T07:53:58.577Z,11.73
2017-11-01T07:56:26.261Z,11.70
2017-11-01T07:58:53.901Z,11.75
2017-11-01T08:01:21.604Z,11.78
2017-11-01T08:03:49.288Z,11.77
2017-11-01T08:06:16.942Z,11.76
2017-11-01T08:08:44.728Z,11.77
2017-11-01T08:11:12.389Z,11.79
2017-11-01T08:13:40.052Z,11.82
2017-11-01T08:16:07.769Z,11.82
2017-11-01T08:18:35.478Z,11.84
2017-11-01T08:21:03.115Z,11.84
2017-11-01T08:23:30.795Z,11.83
2017-11-01T08:25:58.474Z,11.85
2017-11-01T08:28:26.261Z,11.85
2017-11-01T08:30:54.019Z,11.85
2017-11-01T08:33:21.652Z,11.80
2017-11-01T08:35:49.354Z,11.79
2017-11-01T08:38:16.986Z,11.80
2017-11-01T08:40:44.705Z,11.78
2017-11-01T08:43:12.358Z,11.84
2017-11-01T08:45:40.112Z,11.88
2017-11-01T08:48:07.755Z,11.91
2017-11-01T08:50:35.674Z,11.88
2017-11-01T08:53:03.444Z,11.93
2017-11-01T08:55:31.138Z,11.96
2017-11-01T08:57:58.808Z,11.98
2017-11-01T09:00:26.524Z,11.98
2017-11-01T09:02:54.189Z,11.98
2017-11-01T09:05:21.885Z,11.94
2017-11-01T09:07:49.531Z,11.96
2017-11-01T09:10:17.223Z,11.95
2017-11-01T09:12:44.893Z,11.96
2017-11-01T09:15:12.666Z,12.00
2017-11-01T09:17:40.329Z,11.96
2017-11-01T09:20:08.040Z,11.95
2017-11-01T09:22:35.694Z,11.98
2017-11-01T09:25:03.362Z,11.98
2017-11-01T09:27:30.990Z,11.97
2017-11-01T09:29:58.686Z,12.06
2017-11-01T09:32:26.398Z,12.07
2017-11-01T09:34:54.097Z,12.16
2017-11-01T09:37:21.758Z,12.19
2017-11-01T09:39:49.446Z,12.22
2017-11-01T09:42:17.114Z,12.27
2017-11-01T09:44:44.814Z,12.32
2017-11-01T09:47:12.502Z,12.37
2017-11-01T09:49:40.207Z,12.35
2017-11-01T09:52:07.840Z,12.40
2017-11-01T09:54:35.557Z,12.48
2017-11-01T09:57:03.222Z,12.41
2017-11-01T09:59:30.918Z,12.34
2017-11-01T10:01:58.610Z,12.38
2017-11-01T10:04:26.336Z,12.34
2017-11-01T10:06:54.742Z,12.43
2017-11-01T10:09:22.461Z,12.54
2017-11-01T10:11:50.150Z,12.65
2017-11-01T10:14:17.934Z,12.76
2017-11-01T10:16:45.597Z,12.79
2017-11-01T10:19:13.305Z,12.84
2017-11-01T10:21:41.006Z,12.79
2017-11-01T10:24:08.721Z,12.74
2017-11-01T10:26:36.380Z,12.68
2017-11-01T10:29:04.031Z,12.67
2017-11-01T10:31:31.774Z,12.76
2017-11-01T10:33:59.488Z,12.87
2017-11-01T10:36:27.138Z,13.22
2017-11-01T10:38:54.844Z,13.67
2017-11-01T10:41:22.533Z,14.04
2017-11-01T10:43:50.286Z,14.45
2017-11-01T10:46:17.946Z,14.24
2017-11-01T10:48:45.582Z,14.09
2017-11-01T10:51:13.283Z,13.97
2017-11-01T10:53:40.934Z,13.96
2017-11-01T10:56:08.610Z,13.86
2017-11-01T10:58:36.290Z,13.80
2017-11-01T11:01:03.998Z,13.75
2017-11-01T11:03:31.658Z,13.95
2017-11-01T11:05:59.380Z,13.99
2017-11-01T11:08:27.061Z,14.13
2017-11-01T11:10:54.762Z,14.61
2017-11-01T11:13:22.429Z,15.19
2017-11-01T11:15:50.181Z,15.67
2017-11-01T11:18:17.835Z,15.83
2017-11-01T11:20:45.553Z,16.19
2017-11-01T11:23:13.221Z,16.43
2017-11-01T11:25:40.919Z,16.34
2017-11-01T11:28:08.585Z,16.68
2017-11-01T11:30:36.265Z,16.87
2017-11-01T11:33:03.930Z,17.13
2017-11-01T11:35:31.607Z,17.26
2017-11-01T11:37:59.261Z,17.31
2017-11-01T11:40:27.017Z,17.37
2017-11-01T11:42:54.684Z,17.60
2017-11-01T11:45:22.364Z,17.61
2017-11-01T11:47:50.054Z,17.56
2017-11-01T11:50:17.767Z,17.61
2017-11-01T11:52:45.411Z,18.02
2017-11-01T11:55:13.072Z,18.15
2017-11-01T11:57:40.765Z,18.15
2017-11-01T12:00:08.456Z,18.00
2017-11-01T12:02:36.122Z,18.17
2017-11-01T12:05:03.879Z,18.23
2017-11-01T12:07:31.566Z,18.32
2017-11-01T12:09:59.261Z,18.50
2017-11-01T12:12:26.927Z,18.60
2017-11-01T12:14:54.598Z,18.47
2017-11-01T12:17:22.258Z,18.60
2017-11-01T12:19:49.961Z,18.57
2017-11-01T12:22:17.646Z,18.64
2017-11-01T12:24:45.345Z,18.56
2017-11-01T12:27:13.004Z,18.63
2017-11-01T12:29:40.692Z,18.54
2017-11-01T12:32:08.364Z,18.40
2017-11-01T12:34:36.074Z,18.30
2017-11-01T12:37:03.769Z,18.38
2017-11-01T12:39:31.424Z,18.55
2017-11-01T12:41:59.150Z,18.79
2017-11-01T12:44:26.809Z,18.84
2017-11-01T12:46:54.565Z,19.09
2017-11-01T12:49:22.254Z,19.04
2017-11-01T12:51:49.962Z,19.16
2017-11-01T12:54:17.624Z,19.13
2017-11-01T12:56:45.329Z,19.14
2017-11-01T12:59:13.012Z,19.11
2017-11-01T13:01:40.725Z,19.31
2017-11-01T13:04:08.364Z,19.14
2017-11-01T13:06:36.130Z,18.91
2017-11-01T13:09:03.784Z,18.84
2017-11-01T13:11:31.477Z,18.82
2017-11-01T13:13:59.130Z,18.85
2017-11-01T13:16:26.849Z,18.56
2017-11-01T13:18:54.523Z,18.46
2017-11-01T13:21:22.211Z,18.23
2017-11-01T13:23:49.875Z,18.53
2017-11-01T13:26:17.532Z,18.66
2017-11-01T13:28:45.221Z,18.55
2017-11-01T13:31:12.868Z,18.28
2017-11-01T13:33:40.552Z,18.27
2017-11-01T13:36:08.199Z,18.21
2017-11-01T13:38:35.902Z,18.17
2017-11-01T13:41:03.555Z,18.24
2017-11-01T13:43:31.312Z,18.35
2017-11-01T13:45:58.979Z,18.62
2017-11-01T13:48:26.648Z,18.57
2017-11-01T13:50:54.318Z,18.74
2017-11-01T13:53:22.140Z,18.72
2017-11-01T13:55:49.802Z,18.48
2017-11-01T13:58:17.505Z,18.18
2017-11-01T14:00:45.177Z,17.75
2017-11-01T14:03:12.906Z,17.56
2017-11-01T14:05:40.555Z,17.47
2017-11-01T14:08:08.250Z,17.37
2017-11-01T14:10:35.925Z,17.39
2017-11-01T14:13:03.643Z,17.27
2017-11-01T14:15:31.319Z,17.16
2017-11-01T14:17:59.000Z,17.26
2017-11-01T14:20:26.957Z,17.31
2017-11-01T14:22:54.922Z,17.36
2017-11-01T14:25:22.665Z,17.37
2017-11-01T14:27:50.453Z,17.34
2017-11-01T14:30:18.197Z,17.34
2017-11-01T14:32:45.838Z,17.24
2017-11-01T14:35:13.536Z,17.03
2017-11-01T14:37:41.210Z,16.84
2017-11-01T14:40:08.964Z,16.71
2017-11-01T14:42:36.610Z,16.65
2017-11-01T14:45:04.286Z,16.61
2017-11-01T14:47:31.935Z,16.57
2017-11-01T14:49:59.649Z,16.38
2017-11-01T14:52:27.362Z,16.31
2017-11-01T14:54:55.056Z,16.14
2017-11-01T14:57:22.727Z,16.03
2017-11-01T14:59:50.437Z,15.99
2017-11-01T15:02:18.107Z,15.98
2017-11-01T15:04:45.773Z,15.99
2017-11-01T15:07:13.418Z,16.06
2017-11-01T15:09:41.153Z,16.04
2017-11-01T15:12:08.825Z,15.99
2017-11-01T15:14:36.502Z,15.98
2017-11-01T15:17:04.155Z,16.02
2017-11-01T15:19:31.878Z,16.05
2017-11-01T15:21:59.521Z,16.09
2017-11-01T15:24:27.220Z,16.07
2017-11-01T15:26:54.885Z,16.01
2017-11-01T15:29:22.595Z,15.95
2017-11-01T15:31:50.270Z,15.90
2017-11-01T15:34:18.001Z,15.84
2017-11-01T15:36:45.680Z,15.76
2017-11-01T15:39:13.377Z,15.68
2017-11-01T15:41:49.653Z,15.62
2017-11-01T15:44:17.344Z,15.59
2017-11-01T15:46:45.013Z,15.64
2017-11-01T15:49:12.729Z,15.65
2017-11-01T15:51:40.394Z,15.60
2017-11-01T15:54:08.072Z,15.53
2017-11-01T15:56:35.749Z,15.48
2017-11-01T15:59:03.501Z,15.40
2017-11-01T16:01:31.160Z,15.40
2017-11-01T16:03:58.918Z,15.42
2017-11-01T16:06:26.615Z,15.40
2017-11-01T16:08:54.307Z,15.38
2017-11-01T16:11:22.041Z,15.37
2017-11-01T16:13:49.717Z,15.34
2017-11-01T16:16:17.392Z,15.29
2017-11-01T16:18:45.061Z,15.26
2017-11-01T16:21:12.753Z,15.24
2017-11-01T16:23:40.414Z,15.18
2017-11-01T16:26:08.098Z,15.16
2017-11-01T16:28:35.744Z,15.07
2017-11-01T16:31:03.488Z,15.00
2017-11-01T16:33:31.155Z,14.94
2017-11-01T16:35:58.855Z,14.87
2017-11-01T16:38:26.541Z,14.70
2017-11-01T16:40:54.246Z,14.63
2017-11-01T16:43:21.913Z,14.65
2017-11-01T16:45:49.692Z,14.60
2017-11-01T16:48:17.388Z,14.55
2017-11-01T16:50:45.118Z,14.50
2017-11-01T16:53:12.892Z,14.42
2017-11-01T16:55:40.562Z,14.42
2017-11-01T16:58:08.273Z,14.66
2017-11-01T17:00:36.015Z,14.93
2017-11-01T17:03:03.765Z,15.16
2017-11-01T17:05:32.158Z,15.43
2017-11-01T17:07:59.823Z,15.78
2017-11-01T17:10:27.521Z,16.19
2017-11-01T17:12:55.195Z,16.60
2017-11-01T17:15:22.858Z,16.93
2017-11-01T17:17:50.547Z,17.67
2017-11-01T17:20:18.334Z,18.21
2017-11-01T17:22:46.020Z,17.94
2017-11-01T17:25:13.680Z,17.57
2017-11-01T17:27:41.458Z,17.28
2017-11-01T17:30:09.145Z,17.06
2017-11-01T17:32:36.854Z,16.88
2017-11-01T17:35:04.486Z,16.74
2017-11-01T17:37:32.214Z,16.63
2017-11-01T17:39:59.916Z,16.53
2017-11-01T17:42:27.560Z,16.44
2017-11-01T17:44:55.252Z,16.39
2017-11-01T17:47:22.926Z,16.32
2017-11-01T17:49:50.820Z,16.29
2017-11-01T17:52:18.502Z,16.36
2017-11-01T17:54:46.200Z,16.27
2017-11-01T17:57:13.851Z,16.21
2017-11-01T17:59:41.553Z,16.19
2017-11-01T18:02:09.214Z,16.19
2017-11-01T18:04:36.931Z,16.14
2017-11-01T18:07:04.608Z,16.10
2017-11-01T18:09:32.336Z,16.14
2017-11-01T18:12:00.002Z,16.16
2017-11-01T18:14:27.715Z,16.17
2017-11-01T18:16:55.383Z,16.14
2017-11-01T18:19:23.058Z,16.10
2017-11-01T18:21:50.714Z,16.10
2017-11-01T18:24:18.461Z,16.12
2017-11-01T18:26:46.158Z,16.15
2017-11-01T18:29:13.898Z,16.17
2017-11-01T18:31:41.644Z,16.14
2017-11-01T18:34:09.350Z,16.09
2017-11-01T18:36:37.010Z,16.07
2017-11-01T18:39:04.761Z,16.05
2017-11-01T18:41:32.421Z,16.13
2017-11-01T18:44:00.119Z,16.09
2017-11-01T18:46:27.794Z,16.08
2017-11-01T18:48:55.528Z,16.05
2017-11-01T18:51:23.187Z,16.03
2017-11-01T18:53:50.865Z,15.95
2017-11-01T18:56:18.566Z,15.88
2017-11-01T18:58:46.247Z,16.35
2017-11-01T19:01:14.022Z,16.50
2017-11-01T19:03:41.727Z,16.69
2017-11-01T19:06:09.382Z,16.62
2017-11-01T19:08:37.178Z,16.69
2017-11-01T19:11:04.810Z,16.54
2017-11-01T19:13:32.488Z,16.46
2017-11-01T19:16:00.135Z,16.33
2017-11-01T19:18:27.822Z,16.29
2017-11-01T19:20:55.505Z,16.25
2017-11-01T19:23:23.205Z,16.19
2017-11-01T19:25:50.854Z,16.39
2017-11-01T19:28:18.563Z,16.40
2017-11-01T19:30:46.251Z,16.45
2017-11-01T19:33:13.951Z,16.66
2017-11-01T19:35:41.606Z,16.63
2017-11-01T19:38:09.325Z,16.65
2017-11-01T19:40:36.991Z,16.40
2017-11-01T19:43:04.678Z,16.18
2017-11-01T19:45:32.319Z,15.93
2017-11-01T19:47:59.995Z,15.70
2017-11-01T19:50:27.679Z,15.54
2017-11-01T19:52:55.374Z,15.41
2017-11-01T19:55:23.070Z,15.30
2017-11-01T19:57:50.728Z,15.03
2017-11-01T20:00:18.452Z,14.90
2017-11-01T20:02:46.093Z,14.82
2017-11-01T20:05:13.810Z,14.74
2017-11-01T20:07:41.440Z,14.62
2017-11-01T20:10:09.131Z,14.50
2017-11-01T20:12:36.971Z,14.36
2017-11-01T20:15:04.673Z,14.24
2017-11-01T20:17:32.359Z,14.22
2017-11-01T20:20:00.063Z,14.21
2017-11-01T20:22:27.799Z,14.12
2017-11-01T20:24:55.500Z,14.21
2017-11-01T20:27:23.178Z,14.21
2017-11-01T20:29:50.871Z,14.17
2017-11-01T20:32:18.532Z,14.13
2017-11-01T20:34:46.266Z,14.15
2017-11-01T20:37:13.923Z,14.06
2017-11-01T20:39:41.834Z,13.96
2017-11-01T20:42:09.544Z,13.90
2017-11-01T20:44:37.285Z,13.88
2017-11-01T20:47:05.075Z,13.84
2017-11-01T20:49:32.820Z,13.79
2017-11-01T20:52:00.563Z,13.75
2017-11-01T20:54:28.400Z,13.78
2017-11-01T20:56:56.128Z,13.64
2017-11-01T20:59:24.004Z,13.63
2017-11-01T21:01:51.717Z,13.61
2017-11-01T21:04:19.505Z,13.49
2017-11-01T21:06:47.169Z,13.46
2017-11-01T21:09:14.854Z,13.46
2017-11-01T21:11:42.532Z,13.31
2017-11-01T21:14:10.221Z,13.28
2017-11-01T21:16:37.905Z,13.30
2017-11-01T21:19:05.577Z,13.30
2017-11-01T21:21:33.229Z,13.34
2017-11-01T21:24:00.872Z,13.33
2017-11-01T21:26:28.716Z,13.35
2017-11-01T21:28:56.374Z,13.34
2017-11-01T21:31:24.182Z,13.38
2017-11-01T21:33:52.193Z,13.31
2017-11-01T21:36:19.946Z,13.52
2017-11-01T21:38:47.781Z,13.44
2017-11-01T21:41:15.687Z,13.30
2017-11-01T21:43:43.715Z,13.29
2017-11-01T21:46:11.650Z,13.34
2017-11-01T21:48:39.454Z,13.33
2017-11-01T21:51:07.358Z,13.24
2017-11-01T21:53:37.164Z,13.20
2017-11-01T21:56:04.884Z,13.17
2017-11-01T21:58:32.575Z,13.22
2017-11-01T22:01:00.310Z,13.21
2017-11-01T22:03:27.963Z,13.16
2017-11-01T22:05:55.661Z,13.16
2017-11-01T22:08:23.322Z,13.15
2017-11-01T22:10:50.997Z,13.07
2017-11-01T22:13:18.727Z,13.01
2017-11-01T22:15:46.631Z,12.96
2017-11-01T22:18:14.730Z,12.93
2017-11-01T22:20:42.788Z,12.87
2017-11-01T22:23:10.679Z,12.92
2017-11-01T22:25:39.695Z,13.00
2017-11-01T22:28:07.492Z,13.04
2017-11-01T22:30:35.492Z,13.09
2017-11-01T22:33:03.230Z,13.13
2017-11-01T22:35:31.127Z,13.13
2017-11-01T22:38:01.122Z,13.20
2017-11-01T22:40:29.273Z,13.12
2017-11-01T22:42:57.078Z,13.13
2017-11-01T22:45:25.021Z,13.18
2017-11-01T22:47:52.888Z,13.20
2017-11-01T22:50:20.862Z,13.21
2017-11-01T22:52:48.652Z,13.21
2017-11-01T22:55:16.568Z,13.16
2017-11-01T22:57:44.312Z,13.15
2017-11-01T23:00:11.988Z,13.07
2017-11-01T23:02:39.649Z,13.04
2017-11-01T23:05:07.330Z,12.98
2017-11-01T23:07:34.990Z,12.95
2017-11-01T23:10:02.685Z,12.75
2017-11-01T23:12:30.375Z,12.73
2017-11-01T23:14:58.077Z,12.76
2017-11-01T23:17:25.724Z,12.72
2017-11-01T23:19:53.443Z,12.67
2017-11-01T23:22:21.134Z,12.60
2017-11-01T23:24:48.881Z,12.59
2017-11-01T23:27:16.552Z,12.60
2017-11-01T23:29:44.344Z,12.61
2017-11-01T23:32:12.039Z,12.74
2017-11-01T23:34:39.705Z,12.76
2017-11-01T23:37:07.407Z,12.75
2017-11-01T23:39:35.249Z,12.62
2017-11-01T23:42:02.933Z,12.53
2017-11-01T23:44:30.586Z,12.46
2017-11-01T23:46:58.354Z,12.50
2017-11-01T23:49:26.006Z,12.48
2017-11-01T23:51:53.708Z,12.49
2017-11-01T23:54:21.372Z,12.52
2017-11-01T23:56:49.060Z,12.54
2017-11-01T23:59:16.782Z,12.53
